createdAt,value
2023-02-22T00:01:51.250Z,21.02
2023-02-22T00:04:21.417Z,17.05
2023-02-22T00:06:50.047Z,21.27
2023-02-22T00:09:20.805Z,15.52
2023-02-22T00:11:49.041Z,17.27
2023-02-22T00:14:21.543Z,19.88
2023-02-22T00:16:48.940Z,20.92
2023-02-22T00:19:16.280Z,21.08
2023-02-22T00:21:44.867Z,17.52
2023-02-22T00:24:23.513Z,21.83
2023-02-22T00:26:57.839Z,22.60
2023-02-22T00:29:25.666Z,20.52
2023-02-22T00:31:55.210Z,17.38
2023-02-22T00:34:24.314Z,20.98
2023-02-22T00:36:51.793Z,22.67
2023-02-22T00:39:19.224Z,17.77
2023-02-22T00:41:46.633Z,22.77
2023-02-22T00:44:17.621Z,21.95
2023-02-22T00:46:45.986Z,15.93
2023-02-22T00:49:13.438Z,22.48
2023-02-22T00:51:40.742Z,20.17
2023-02-22T00:54:08.287Z,16.05
2023-02-22T00:56:35.915Z,22.23
2023-02-22T00:59:03.292Z,21.67
2023-02-22T01:01:31.557Z,17.10
2023-02-22T01:03:59.261Z,18.83
2023-02-22T01:06:26.771Z,20.35
2023-02-22T01:08:56.075Z,16.92
2023-02-22T01:11:24.770Z,20.33
2023-02-22T01:13:54.222Z,16.40
2023-02-22T01:16:22.510Z,16.80
2023-02-22T01:18:52.449Z,22.10
2023-02-22T01:21:21.415Z,22.25
2023-02-22T01:23:48.868Z,19.02
2023-02-22T01:26:16.371Z,20.15
2023-02-22T01:28:43.683Z,15.90
2023-02-22T01:31:11.246Z,20.50
2023-02-22T01:33:39.200Z,26.70
2023-02-22T01:36:11.421Z,17.92
2023-02-22T01:38:39.551Z,16.15
2023-02-22T01:41:06.993Z,22.08
2023-02-22T01:43:34.548Z,19.42
2023-02-22T01:46:06.227Z,19.02
2023-02-22T01:48:56.571Z,17.95
2023-02-22T01:51:38.989Z,16.77
2023-02-22T01:54:06.367Z,16.05
2023-02-22T01:56:36.598Z,18.17
2023-02-22T01:59:07.613Z,24.52
2023-02-22T02:01:40.089Z,20.10
2023-02-22T02:04:12.908Z,19.98
2023-02-22T02:06:42.368Z,17.17
2023-02-22T02:09:20.556Z,17.02
2023-02-22T02:11:48.069Z,18.52
2023-02-22T02:14:15.856Z,17.65
2023-02-22T02:16:46.298Z,16.30
2023-02-22T02:19:33.342Z,16.67
2023-02-22T02:22:13.206Z,14.98
2023-02-22T02:24:40.490Z,15.10
2023-02-22T02:27:17.184Z,15.05
2023-02-22T02:30:13.980Z,18.00
2023-02-22T02:33:03.387Z,16.65
2023-02-22T02:35:43.570Z,18.52
2023-02-22T02:38:41.420Z,19.67
2023-02-22T02:41:26.560Z,19.15
2023-02-22T02:44:07.871Z,17.20
2023-02-22T02:47:01.960Z,15.32
2023-02-22T02:49:48.816Z,16.88
2023-02-22T02:52:18.061Z,18.35
2023-02-22T02:54:48.652Z,17.17
2023-02-22T02:57:15.988Z,15.45
2023-02-22T02:59:43.761Z,15.80
2023-02-22T03:02:34.770Z,19.95
2023-02-22T03:05:07.433Z,20.95
2023-02-22T03:07:34.817Z,17.63
2023-02-22T03:10:33.410Z,20.20
2023-02-22T03:13:09.367Z,19.50
2023-02-22T03:16:04.783Z,21.42
2023-02-22T03:18:53.140Z,19.50
2023-02-22T03:21:42.111Z,22.77
2023-02-22T03:24:16.900Z,23.25
2023-02-22T03:26:53.431Z,18.77
2023-02-22T03:29:24.530Z,19.13
2023-02-22T03:32:01.468Z,17.45
2023-02-22T03:34:40.833Z,21.80
2023-02-22T03:37:19.263Z,18.52
2023-02-22T03:39:49.903Z,19.90
2023-02-22T03:44:55.192Z,22.98
2023-02-22T03:47:32.574Z,20.20
2023-02-22T03:52:37.713Z,23.10
2023-02-22T03:55:12.323Z,24.63
2023-02-22T03:57:43.814Z,29.23
2023-02-22T04:00:15.416Z,22.30
2023-02-22T04:02:44.773Z,24.40
2023-02-22T04:05:18.457Z,20.10
2023-02-22T04:07:46.047Z,22.75
2023-02-22T04:10:17.502Z,20.90
2023-02-22T04:12:45.278Z,27.08
2023-02-22T04:15:16.175Z,22.98
2023-02-22T04:17:44.535Z,19.02
2023-02-22T04:20:17.567Z,21.58
2023-02-22T04:22:49.449Z,28.15
2023-02-22T04:25:19.128Z,32.45
2023-02-22T04:27:56.884Z,21.98
2023-02-22T04:30:35.917Z,27.25
2023-02-22T04:33:08.409Z,22.25
2023-02-22T04:35:37.196Z,22.95
2023-02-22T04:38:06.475Z,25.67
2023-02-22T04:40:33.832Z,24.08
2023-02-22T04:43:01.509Z,26.95
2023-02-22T04:45:29.881Z,27.33
2023-02-22T04:47:59.242Z,28.48
2023-02-22T04:50:28.313Z,23.63
2023-02-22T04:52:57.463Z,27.40
2023-02-22T04:55:24.845Z,23.65
2023-02-22T04:57:52.238Z,23.67
2023-02-22T05:00:21.923Z,24.77
2023-02-22T05:05:19.921Z,28.33
2023-02-22T05:07:47.865Z,26.65
2023-02-22T05:10:15.864Z,23.05
2023-02-22T05:12:43.312Z,29.70
2023-02-22T05:15:11.522Z,29.50
2023-02-22T05:17:38.876Z,26.58
2023-02-22T05:20:08.670Z,23.75
2023-02-22T05:23:05.604Z,26.70
2023-02-22T05:25:33.518Z,23.85
2023-02-22T05:28:10.773Z,21.45
2023-02-22T05:30:39.866Z,27.60
2023-02-22T05:33:09.964Z,24.45
2023-02-22T05:35:39.965Z,26.10
2023-02-22T05:38:33.030Z,23.05
2023-02-22T05:41:00.356Z,23.95
2023-02-22T05:43:27.777Z,28.90
2023-02-22T05:45:55.714Z,26.23
2023-02-22T05:48:23.072Z,26.42
2023-02-22T05:50:50.445Z,29.27
2023-02-22T05:53:19.896Z,24.15
2023-02-22T05:55:47.394Z,24.97
2023-02-22T05:58:15.180Z,25.90
2023-02-22T06:00:42.693Z,23.27
2023-02-22T06:03:11.193Z,23.60
2023-02-22T06:05:41.171Z,25.70
2023-02-22T06:08:08.473Z,23.13
2023-02-22T06:10:36.512Z,28.10
2023-02-22T06:13:04.545Z,24.95
2023-02-22T06:15:32.034Z,28.98
2023-02-22T06:18:00.193Z,26.90
2023-02-22T06:20:29.644Z,21.17
2023-02-22T06:22:58.825Z,23.30
2023-02-22T06:25:30.902Z,21.05
2023-02-22T06:27:58.505Z,22.55
2023-02-22T06:30:29.431Z,20.30
2023-02-22T06:32:56.779Z,28.70
2023-02-22T06:35:24.322Z,24.05
2023-02-22T06:37:51.764Z,21.95
2023-02-22T06:40:19.095Z,24.40
2023-02-22T06:42:48.546Z,22.65
2023-02-22T06:45:17.451Z,25.73
2023-02-22T06:47:44.768Z,21.13
2023-02-22T06:50:29.011Z,21.90
2023-02-22T06:52:58.873Z,24.25
2023-02-22T06:55:29.087Z,20.13
2023-02-22T06:57:59.124Z,17.48
2023-02-22T07:00:28.018Z,27.10
2023-02-22T07:02:56.345Z,26.67
2023-02-22T07:05:24.640Z,22.70
2023-02-22T07:07:54.076Z,27.80
2023-02-22T07:10:29.875Z,24.27
2023-02-22T07:12:57.213Z,18.88
2023-02-22T07:15:26.032Z,20.73
2023-02-22T07:17:53.406Z,20.45
2023-02-22T07:20:21.194Z,22.35
2023-02-22T07:22:49.625Z,22.17
2023-02-22T07:25:17.238Z,20.80
2023-02-22T07:27:44.641Z,23.20
2023-02-22T07:30:34.030Z,19.55
2023-02-22T07:33:03.765Z,19.55
2023-02-22T07:35:33.215Z,19.83
2023-02-22T07:38:00.562Z,18.50
2023-02-22T07:40:28.282Z,19.88
2023-02-22T07:43:05.924Z,23.95
2023-02-22T07:45:35.758Z,24.45
2023-02-22T07:48:04.631Z,17.67
2023-02-22T07:50:33.004Z,24.52
2023-02-22T07:53:02.197Z,23.83
2023-02-22T07:55:31.187Z,17.27
2023-02-22T07:58:00.631Z,18.48
2023-02-22T08:00:44.136Z,17.98
2023-02-22T08:03:13.610Z,19.77
2023-02-22T08:05:44.711Z,19.73
2023-02-22T08:08:12.254Z,22.30
2023-02-22T08:10:39.581Z,19.00
2023-02-22T08:13:06.920Z,15.60
2023-02-22T08:15:39.755Z,18.85
2023-02-22T08:18:09.887Z,19.10
2023-02-22T08:20:38.458Z,17.27
2023-02-22T08:23:06.477Z,16.13
2023-02-22T08:25:34.013Z,19.58
2023-02-22T08:28:04.604Z,15.45
2023-02-22T08:30:34.913Z,18.30
2023-02-22T08:38:03.244Z,15.80
2023-02-22T08:43:02.772Z,17.25
2023-02-22T08:45:35.251Z,20.58
2023-02-22T08:48:02.668Z,15.60
2023-02-22T08:50:33.810Z,15.38
2023-02-22T08:53:02.435Z,18.65
2023-02-22T08:55:32.482Z,18.95
2023-02-22T08:58:01.527Z,14.77
2023-02-22T09:00:33.625Z,16.52
2023-02-22T09:03:01.686Z,17.90
2023-02-22T09:05:31.330Z,17.10
2023-02-22T09:08:02.434Z,17.00
2023-02-22T09:10:33.972Z,15.27
2023-02-22T09:13:02.360Z,16.10
2023-02-22T09:15:30.173Z,15.68
2023-02-22T09:17:57.944Z,16.83
2023-02-22T09:20:25.666Z,15.48
2023-02-22T09:22:54.615Z,17.42
2023-02-22T09:25:22.275Z,13.63
2023-02-22T09:27:51.955Z,13.70
2023-02-22T09:30:19.555Z,14.70
2023-02-22T09:32:47.201Z,20.20
2023-02-22T09:35:14.665Z,16.85
2023-02-22T09:37:45.073Z,15.30
2023-02-22T09:40:24.794Z,15.90
2023-02-22T09:43:03.457Z,13.85
2023-02-22T09:46:06.511Z,12.27
2023-02-22T09:48:37.848Z,13.38
2023-02-22T09:51:15.362Z,11.43
2023-02-22T09:53:49.780Z,11.43
2023-02-22T09:56:19.171Z,22.58
2023-02-22T09:58:55.201Z,12.50
2023-02-22T10:01:23.124Z,13.10
2023-02-22T10:03:54.538Z,13.52
2023-02-22T10:06:24.778Z,12.68
2023-02-22T10:09:00.074Z,12.38
2023-02-22T10:11:42.803Z,15.18
2023-02-22T10:14:10.134Z,12.82
2023-02-22T10:16:53.668Z,13.57
2023-02-22T10:19:41.086Z,13.30
2023-02-22T10:22:08.747Z,12.70
2023-02-22T10:24:49.209Z,13.00
2023-02-22T10:27:20.710Z,12.90
2023-02-22T10:29:54.607Z,12.95
2023-02-22T10:32:28.254Z,11.60
2023-02-22T10:34:55.705Z,10.60
2023-02-22T10:37:32.394Z,15.13
2023-02-22T10:40:11.573Z,14.38
2023-02-22T10:42:38.854Z,11.95
2023-02-22T10:45:25.748Z,11.82
2023-02-22T10:47:56.065Z,11.80
2023-02-22T10:52:52.428Z,14.60
2023-02-22T10:55:19.902Z,10.30
2023-02-22T10:57:52.605Z,13.50
2023-02-22T11:00:31.745Z,12.70
2023-02-22T11:03:03.536Z,12.30
2023-02-22T11:05:41.233Z,13.25
2023-02-22T11:08:33.028Z,12.15
2023-02-22T11:11:20.467Z,11.75
2023-02-22T11:13:57.567Z,16.95
2023-02-22T11:16:31.047Z,14.10
2023-02-22T11:19:18.132Z,11.18
2023-02-22T11:21:45.682Z,10.18
2023-02-22T11:24:15.602Z,12.73
2023-02-22T11:26:58.180Z,12.38
2023-02-22T11:29:36.787Z,12.90
2023-02-22T11:32:15.049Z,12.45
2023-02-22T11:34:43.266Z,10.90
2023-02-22T11:37:26.099Z,9.90
2023-02-22T11:40:07.096Z,9.85
2023-02-22T11:42:34.502Z,12.70
2023-02-22T11:45:21.616Z,11.57
2023-02-22T11:47:48.891Z,11.75
2023-02-22T11:50:33.603Z,14.23
2023-02-22T11:53:18.932Z,12.07
2023-02-22T11:55:56.923Z,11.77
2023-02-22T11:58:24.153Z,10.77
2023-02-22T12:01:17.563Z,10.50
2023-02-22T12:04:24.820Z,8.73
2023-02-22T12:07:17.474Z,10.07
2023-02-22T12:10:13.316Z,10.73
2023-02-22T12:13:09.708Z,11.38
2023-02-22T12:15:53.874Z,11.02
2023-02-22T12:18:56.067Z,11.88
2023-02-22T12:22:48.217Z,10.32
2023-02-22T12:26:02.321Z,8.27
2023-02-22T12:28:38.154Z,9.57
2023-02-22T12:31:20.185Z,9.10
2023-02-22T12:34:14.030Z,11.38
2023-02-22T12:36:50.465Z,7.60
2023-02-22T12:39:52.396Z,8.88
2023-02-22T12:43:02.323Z,8.05
2023-02-22T12:45:43.638Z,8.50
2023-02-22T12:48:26.629Z,10.43
2023-02-22T12:51:17.555Z,7.45
2023-02-22T12:53:55.556Z,7.60
2023-02-22T13:01:06.981Z,8.65
2023-02-22T13:03:42.308Z,9.45
2023-02-22T13:06:15.080Z,7.75
2023-02-22T13:08:52.870Z,6.03
2023-02-22T13:11:48.981Z,5.35
2023-02-22T13:14:16.246Z,5.80
2023-02-22T13:16:46.234Z,7.53
2023-02-22T13:19:39.062Z,6.72
2023-02-22T13:22:20.796Z,9.02
2023-02-22T13:25:03.215Z,7.45
2023-02-22T13:27:55.204Z,6.15
2023-02-22T13:30:29.091Z,5.47
2023-02-22T13:33:25.029Z,6.32
2023-02-22T13:36:17.954Z,5.03
2023-02-22T13:38:54.127Z,7.63
2023-02-22T13:41:32.968Z,5.35
2023-02-22T13:44:25.272Z,6.20
2023-02-22T13:47:11.674Z,7.45
2023-02-22T13:50:00.177Z,4.32
2023-02-22T13:52:30.010Z,7.57
2023-02-22T13:55:01.287Z,8.30
2023-02-22T13:57:30.880Z,6.03
2023-02-22T14:00:16.154Z,5.93
2023-02-22T14:03:13.516Z,6.00
2023-02-22T14:05:44.636Z,5.45
2023-02-22T14:08:17.489Z,6.35
2023-02-22T14:10:45.404Z,4.90
2023-02-22T14:13:14.056Z,4.28
2023-02-22T14:16:05.001Z,6.80
2023-02-22T14:18:46.709Z,6.05
2023-02-22T14:21:15.663Z,5.13
2023-02-22T14:23:45.010Z,7.18
2023-02-22T14:26:29.684Z,3.80
2023-02-22T14:29:16.190Z,5.28
2023-02-22T14:31:43.647Z,4.10
2023-02-22T14:34:13.937Z,4.38
2023-02-22T14:37:08.327Z,8.00
2023-02-22T14:39:43.531Z,4.35
2023-02-22T14:42:24.530Z,6.20
2023-02-22T14:45:09.777Z,4.90
2023-02-22T14:48:03.659Z,4.80
2023-02-22T14:50:48.823Z,5.97
2023-02-22T14:53:30.108Z,8.05
2023-02-22T14:56:04.011Z,5.35
2023-02-22T14:58:31.276Z,12.25
2023-02-22T15:00:58.541Z,5.28
2023-02-22T15:03:38.460Z,5.82
2023-02-22T15:06:22.793Z,7.47
2023-02-22T15:09:07.209Z,6.97
2023-02-22T15:11:34.087Z,8.15
2023-02-22T15:14:02.587Z,4.13
2023-02-22T15:16:34.721Z,3.90
2023-02-22T15:19:07.821Z,5.95
2023-02-22T15:21:35.463Z,5.05
2023-02-22T15:24:07.967Z,5.47
2023-02-22T15:27:00.384Z,6.70
2023-02-22T15:29:40.038Z,6.50
2023-02-22T15:32:31.634Z,6.45
2023-02-22T15:35:28.521Z,5.53
2023-02-22T15:38:26.595Z,5.47
2023-02-22T15:41:05.605Z,6.28
2023-02-22T15:43:32.902Z,6.65
2023-02-22T15:46:00.704Z,6.95
2023-02-22T15:48:29.647Z,6.97
2023-02-22T15:51:13.825Z,5.03
2023-02-22T15:53:49.843Z,14.05
2023-02-22T15:56:29.949Z,7.60
2023-02-22T15:59:06.059Z,10.48
2023-02-22T16:01:40.696Z,7.35
2023-02-22T16:04:21.243Z,4.10
2023-02-22T16:06:49.658Z,7.70
2023-02-22T16:09:26.138Z,3.40
2023-02-22T16:12:22.725Z,8.75
2023-02-22T16:14:52.401Z,5.53
2023-02-22T16:17:25.779Z,5.95
2023-02-22T16:19:53.519Z,7.85
2023-02-22T16:22:34.331Z,4.75
2023-02-22T16:25:19.731Z,6.90
2023-02-22T16:27:47.884Z,11.00
2023-02-22T16:30:25.634Z,9.13
2023-02-22T16:32:54.812Z,10.35
2023-02-22T16:35:28.518Z,11.40
2023-02-22T16:38:01.628Z,12.30
2023-02-22T16:40:35.762Z,9.90
2023-02-22T16:43:04.972Z,9.35
2023-02-22T16:45:31.932Z,11.07
2023-02-22T16:48:11.261Z,11.88
2023-02-22T16:50:38.149Z,11.55
2023-02-22T16:53:05.427Z,13.73
2023-02-22T16:55:33.327Z,19.67
2023-02-22T16:58:01.413Z,23.15
2023-02-22T17:00:31.675Z,15.98
2023-02-22T17:03:03.858Z,16.58
2023-02-22T17:05:34.966Z,14.80
2023-02-22T17:08:02.415Z,22.20
2023-02-22T17:10:29.820Z,13.05
2023-02-22T17:13:07.200Z,12.43
2023-02-22T17:15:40.338Z,16.45
2023-02-22T17:18:16.491Z,16.17
2023-02-22T17:20:45.053Z,16.95
2023-02-22T17:23:12.708Z,15.55
2023-02-22T17:25:42.775Z,12.95
2023-02-22T17:28:09.855Z,13.70
2023-02-22T17:30:37.750Z,16.00
2023-02-22T17:33:06.847Z,14.43
2023-02-22T17:35:37.275Z,14.67
2023-02-22T17:38:06.292Z,20.02
2023-02-22T17:40:38.385Z,16.85
2023-02-22T17:43:08.750Z,16.75
2023-02-22T17:48:06.071Z,13.23
2023-02-22T17:50:33.483Z,15.70
2023-02-22T17:53:00.692Z,17.85
2023-02-22T17:55:28.189Z,24.70
2023-02-22T17:57:58.521Z,18.77
2023-02-22T18:00:34.591Z,18.20
2023-02-22T18:03:07.296Z,19.40
2023-02-22T18:05:43.247Z,18.13
2023-02-22T18:08:10.944Z,17.80
2023-02-22T18:10:38.482Z,17.60
2023-02-22T18:13:05.501Z,17.98
2023-02-22T18:15:35.686Z,17.55
2023-02-22T18:20:38.351Z,15.05
2023-02-22T18:23:07.932Z,21.20
2023-02-22T18:25:36.178Z,20.23
2023-02-22T18:28:07.828Z,16.38
2023-02-22T18:30:37.282Z,15.98
2023-02-22T18:33:04.746Z,16.43
2023-02-22T18:35:31.706Z,20.00
2023-02-22T18:37:58.979Z,10.60
2023-02-22T18:40:26.288Z,15.82
2023-02-22T18:42:53.117Z,16.58
2023-02-22T18:45:21.224Z,12.68
2023-02-22T18:47:48.129Z,17.08
2023-02-22T18:50:17.284Z,19.55
2023-02-22T18:52:45.916Z,15.13
2023-02-22T18:55:19.172Z,13.82
2023-02-22T18:57:47.137Z,13.90
2023-02-22T19:00:19.928Z,27.05
2023-02-22T19:02:47.298Z,14.32
2023-02-22T19:05:17.401Z,25.83
2023-02-22T19:07:45.423Z,16.80
2023-02-22T19:10:12.731Z,13.27
2023-02-22T19:12:40.013Z,14.32
2023-02-22T19:15:07.986Z,16.60
2023-02-22T19:17:36.564Z,15.63
2023-02-22T19:20:08.870Z,12.85
2023-02-22T19:22:35.774Z,12.80
2023-02-22T19:25:04.316Z,13.07
2023-02-22T19:27:33.982Z,12.25
2023-02-22T19:30:01.180Z,18.67
2023-02-22T19:32:28.293Z,11.77
2023-02-22T19:35:02.270Z,14.57
2023-02-22T19:37:36.558Z,17.85
2023-02-22T19:40:09.806Z,19.85
2023-02-22T19:42:36.731Z,16.48
2023-02-22T19:45:03.747Z,17.05
2023-02-22T19:47:30.829Z,20.55
2023-02-22T19:49:59.739Z,24.65
2023-02-22T19:52:28.942Z,17.33
2023-02-22T19:54:56.393Z,18.40
2023-02-22T19:57:24.677Z,17.92
2023-02-22T19:59:52.050Z,13.57
2023-02-22T20:02:20.434Z,13.63
2023-02-22T20:04:50.115Z,17.73
2023-02-22T20:07:17.169Z,14.32
2023-02-22T20:09:44.447Z,17.58
2023-02-22T20:12:11.336Z,18.65
2023-02-22T20:14:38.796Z,20.65
2023-02-22T20:17:07.743Z,19.02
2023-02-22T20:19:37.224Z,18.02
2023-02-22T20:22:04.181Z,23.47
2023-02-22T20:24:31.109Z,21.60
2023-02-22T20:26:58.373Z,28.23
2023-02-22T20:29:32.276Z,24.88
2023-02-22T20:32:01.013Z,23.50
2023-02-22T20:34:32.345Z,23.55
2023-02-22T20:37:00.263Z,21.20
2023-02-22T20:39:27.339Z,20.45
2023-02-22T20:41:54.660Z,15.40
2023-02-22T20:44:22.241Z,17.77
2023-02-22T20:46:49.242Z,22.67
2023-02-22T20:49:19.380Z,32.22
2023-02-22T20:51:48.129Z,17.92
2023-02-22T20:54:15.945Z,19.60
2023-02-22T20:56:44.986Z,19.80
2023-02-22T20:59:13.924Z,16.20
2023-02-22T21:01:42.146Z,16.05
2023-02-22T21:04:10.597Z,12.35
2023-02-22T21:06:39.006Z,15.45
2023-02-22T21:09:10.284Z,12.80
2023-02-22T21:11:39.006Z,14.13
2023-02-22T21:14:06.293Z,13.88
2023-02-22T21:16:36.313Z,11.75
2023-02-22T21:19:06.984Z,12.00
2023-02-22T21:21:35.358Z,11.77
2023-02-22T21:24:02.781Z,14.10
2023-02-22T21:26:31.887Z,11.73
2023-02-22T21:29:00.813Z,10.25
2023-02-22T21:31:28.696Z,11.70
2023-02-22T21:33:57.996Z,22.33
2023-02-22T21:36:26.126Z,14.18
2023-02-22T21:39:03.115Z,12.00
2023-02-22T21:41:31.318Z,12.77
2023-02-22T21:43:59.329Z,11.80
2023-02-22T21:46:27.785Z,10.77
2023-02-22T21:48:58.734Z,12.18
2023-02-22T21:51:33.479Z,12.40
2023-02-22T21:54:08.354Z,14.88
2023-02-22T21:56:37.819Z,15.90
2023-02-22T21:59:19.018Z,16.17
2023-02-22T22:01:51.684Z,19.58
2023-02-22T22:04:27.644Z,21.65
2023-02-22T22:06:56.830Z,19.27
2023-02-22T22:09:24.567Z,20.63
2023-02-22T22:11:53.896Z,16.75
2023-02-22T22:14:24.621Z,14.88
2023-02-22T22:16:54.424Z,16.45
2023-02-22T22:19:21.392Z,21.20
2023-02-22T22:21:50.127Z,21.45
2023-02-22T22:24:19.972Z,27.95
2023-02-22T22:26:54.554Z,19.02
2023-02-22T22:29:28.669Z,20.73
2023-02-22T22:31:56.554Z,16.13
2023-02-22T22:34:29.477Z,21.92
2023-02-22T22:37:00.392Z,15.35
2023-02-22T22:39:27.648Z,21.30
2023-02-22T22:41:54.790Z,13.90
2023-02-22T22:44:28.798Z,16.38
2023-02-22T22:46:56.156Z,14.95
2023-02-22T22:49:25.431Z,15.73
2023-02-22T22:51:52.742Z,16.13
2023-02-22T22:54:20.001Z,17.75
2023-02-22T22:56:46.936Z,14.93
2023-02-22T22:59:13.976Z,14.40
2023-02-22T23:01:44.605Z,12.35
2023-02-22T23:04:16.214Z,15.98
2023-02-22T23:06:46.510Z,14.73
2023-02-22T23:09:19.473Z,17.65
2023-02-22T23:11:53.371Z,14.25
2023-02-22T23:14:31.241Z,16.90
2023-02-22T23:17:05.625Z,18.38
2023-02-22T23:19:34.617Z,18.20
2023-02-22T23:22:05.285Z,18.58
2023-02-22T23:24:36.111Z,21.17
2023-02-22T23:27:07.302Z,18.85
2023-02-22T23:29:38.002Z,17.42
2023-02-22T23:32:06.110Z,20.35
2023-02-22T23:34:33.546Z,17.77
2023-02-22T23:37:00.919Z,20.50
2023-02-22T23:39:28.092Z,20.48
2023-02-22T23:41:59.300Z,22.60
2023-02-22T23:44:27.517Z,23.15
2023-02-22T23:46:55.392Z,17.83
2023-02-22T23:49:26.398Z,26.52
2023-02-22T23:51:54.220Z,25.38
2023-02-22T23:54:24.314Z,28.60
2023-02-22T23:56:58.007Z,22.30
2023-02-22T23:59:27.051Z,20.30
